OIHR

Arak Airport

Airport
ICAO code
OIHR
IATA Code
AJK
Summary
ICAO Region
MID
ICAO Territory
Location

Mobarak Abad, Markazi

Serving
Arak
Elevation
5453 ft
Coordinates
34° 8' 2" N , 49° 50' 34" E
KCC
Metar
Observation
OIHR 061000Z 09010KT 1500 BR SCT035 OVC090 05/02 Q1021
Station
Arak
Date/Time
2022-12-06 10:00:00
Wind direction
90°
Wind speed
10 kts
Lowest cloud amount
scattered clouds
Temperature
5°C
Dew point
2°C
Humidity
80%
QNH
1021 hPa
Weather condition
n/a

Airport serving Arak, Iran.

Climatology

Continental climate (Köppen climate classification Dsa).

Runways

Designator Length Width Surface Rops
8/26 2990 45 ASP No/No

Airport map

Aerial View

SKYbrary Partners:

Safety knowledge contributed by: